De Aar Military Airport


Codes: FADY/
Name: De Aar Military Airport
City: De Aar
Country: South Africa
Elevation: 4037 ft.

Photos at De Aar Military Airport


   Photos courtesy of SpottingLog. You can add your own sightings and photos by signing up for a free trial today.



No photos found.

Weather at De Aar Military Airport


Time (UTC)DescriptionTempratureWindCloud coverageVisibilityPressureHumidity
15-Apr-2024 18:00Moderate Rain18°C7 mph, E60%10000m1017hPa64%
15-Apr-2024 21:00Light Rain17°C7 mph, E85%10000m1018hPa66%
16-Apr-2024 00:00Moderate Rain14°C11 mph, E100%10000m1019hPa80%
16-Apr-2024 03:00Light Rain14°C13 mph, NE99%10000m1019hPa74%
16-Apr-2024 06:00Light Rain15°C16 mph, NE99%10000m1019hPa71%
16-Apr-2024 09:00Overcast Clouds20°C22 mph, NE94%10000m1019hPa59%
16-Apr-2024 12:00Light Rain23°C18 mph, N63%10000m1016hPa46%
16-Apr-2024 15:00Light Rain22°C11 mph, N59%10000m1015hPa45%
16-Apr-2024 18:00Light Rain17°C13 mph, NE74%10000m1018hPa66%
16-Apr-2024 21:00Light Rain15°C9 mph, NE99%10000m1019hPa75%
17-Apr-2024 00:00Light Rain15°C9 mph, NE98%10000m1018hPa71%
17-Apr-2024 03:00Overcast Clouds15°C13 mph, NE89%10000m1017hPa72%
17-Apr-2024 06:00Broken Clouds15°C16 mph, NE56%10000m1019hPa78%
17-Apr-2024 09:00Clear Sky20°C18 mph, N1%10000m1019hPa59%
17-Apr-2024 12:00Light Rain23°C16 mph, N9%10000m1016hPa46%
17-Apr-2024 15:00Few Clouds23°C13 mph, N16%10000m1016hPa41%
17-Apr-2024 18:00Few Clouds20°C11 mph, NE19%10000m1018hPa58%
17-Apr-2024 21:00Overcast Clouds19°C13 mph, NE89%10000m1019hPa61%
18-Apr-2024 00:00Scattered Clouds17°C7 mph, NE50%10000m1019hPa67%
18-Apr-2024 03:00Clear Sky15°C4 mph, NE0%10000m1020hPa71%
18-Apr-2024 06:00Clear Sky17°C7 mph, NE0%10000m1022hPa64%
18-Apr-2024 09:00Clear Sky23°C13 mph, N3%10000m1021hPa43%
18-Apr-2024 12:00Clear Sky25°C11 mph, N3%10000m1018hPa33%
18-Apr-2024 15:00Broken Clouds25°C7 mph, N52%10000m1018hPa32%
18-Apr-2024 18:00Broken Clouds22°C4 mph, NE67%10000m1019hPa42%
18-Apr-2024 21:00Few Clouds20°C7 mph, NE12%10000m1020hPa47%
19-Apr-2024 00:00Clear Sky19°C4 mph, NE9%10000m1020hPa51%
19-Apr-2024 03:00Broken Clouds18°C4 mph, NE59%10000m1020hPa53%
19-Apr-2024 06:00Broken Clouds19°C7 mph, NE76%10000m1021hPa51%
19-Apr-2024 09:00Overcast Clouds24°C9 mph, N99%10000m1019hPa41%
19-Apr-2024 12:00Overcast Clouds27°C11 mph, NW85%10000m1017hPa33%
19-Apr-2024 15:00Scattered Clouds27°C9 mph, NW30%10000m1015hPa29%
19-Apr-2024 18:00Few Clouds24°C7 mph, NE15%10000m1016hPa37%
19-Apr-2024 21:00Clear Sky22°C7 mph, N0%10000m1016hPa43%
20-Apr-2024 00:00Clear Sky20°C4 mph, N0%10000m1016hPa51%
20-Apr-2024 03:00Clear Sky19°C4 mph, N0%10000m1016hPa53%
20-Apr-2024 06:00Clear Sky20°C7 mph, N0%10000m1017hPa50%
20-Apr-2024 09:00Clear Sky26°C16 mph, NW0%10000m1015hPa31%
20-Apr-2024 12:00Clear Sky30°C16 mph, W1%10000m1013hPa22%
20-Apr-2024 15:00Broken Clouds29°C11 mph, W57%10000m1012hPa21%